Time;durP1;ratioP1;P1;durP2;ratioP2;P2;SDS_P1;SDS_P2;PMS_P1;PMS_P2;Temp;Humidity;BMP_temperature;BMP_pressure;BME280_temperature;BME280_humidity;BME280_pressure;Samples;Min_cycle;Max_cycle;Signal;HPM_P1;HPM_P2
2023/05/07 16:34:48;;;;;;;7.97;2.83;;;;;;;25.93;31.25;101131.09;5066254;27;20795;-77
2023/05/07 16:37:14;;;;;;;10.85;2.40;;;;;;;25.85;31.19;101123.41;5066854;28;20406;-76
2023/05/07 16:39:39;;;;;;;9.53;2.53;;;;;;;25.79;31.65;101121.75;5044907;28;20397;-77
2023/05/07 16:42:05;;;;;;;7.27;2.80;;;;;;;25.80;31.65;101118.75;5047092;28;20723;-77
2023/05/07 16:44:30;;;;;;;4.07;2.27;;;;;;;25.76;31.48;101115.72;5047587;28;20400;-76
2023/05/07 16:46:56;;;;;;;8.30;2.75;;;;;;;25.68;31.69;101132.53;5048328;28;20386;-77
2023/05/07 16:49:21;;;;;;;7.87;2.90;;;;;;;25.59;31.83;101127.81;5049058;28;20389;-77
2023/05/07 16:51:47;;;;;;;5.40;2.60;;;;;;;25.49;31.96;101123.97;5047399;28;20668;-78
2023/05/07 16:54:12;;;;;;;8.65;3.35;;;;;;;25.43;31.87;101118.78;5046935;28;20778;-78
2023/05/07 16:56:38;;;;;;;9.23;3.37;;;;;;;25.42;31.94;101130.69;5045723;28;20418;-77
2023/05/07 16:59:04;;;;;;;6.33;2.80;;;;;;;25.31;32.03;101118.94;5046637;28;20397;-77
2023/05/07 17:01:31;;;;;;;9.07;2.90;;;;;;;25.36;32.12;101122.50;5045844;28;20381;-78
2023/05/07 17:03:57;;;;;;;10.10;3.10;;;;;;;25.35;32.24;101123.59;5045464;28;20807;-76
2023/05/07 17:06:22;;;;;;;9.18;3.35;;;;;;;25.31;32.32;101127.09;5046704;28;20407;-78
2023/05/07 17:08:50;;;;;;;8.75;2.60;;;;;;;25.23;32.50;101122.94;5047955;28;20388;-78
2023/05/07 17:11:15;;;;;;;8.75;2.92;;;;;;;25.25;32.46;101120.00;5047992;28;20396;-77
2023/05/07 17:13:41;;;;;;;11.03;2.73;;;;;;;25.17;32.69;101122.06;5048197;28;20397;-77
2023/05/07 17:16:06;;;;;;;10.10;3.10;;;;;;;25.14;32.79;101128.00;5047662;28;20472;-77
2023/05/07 17:18:32;;;;;;;8.77;2.55;;;;;;;25.07;32.97;101129.28;5048062;28;20769;-78
2023/05/07 17:20:58;;;;;;;9.57;2.70;;;;;;;24.96;33.00;101122.94;5047827;28;20710;-77
2023/05/07 17:23:23;;;;;;;12.07;2.93;;;;;;;24.93;33.11;101132.41;5048629;28;20883;-78
2023/05/07 17:25:48;;;;;;;11.20;3.00;;;;;;;24.87;33.32;101129.91;5047650;28;20440;-77
2023/05/07 17:28:15;;;;;;;9.57;3.10;;;;;;;24.89;33.33;101136.72;5047724;28;20406;-77
2023/05/07 17:30:40;;;;;;;12.20;3.67;;;;;;;24.79;33.48;101133.88;5047895;28;20420;-77
2023/05/07 17:33:06;;;;;;;13.10;3.30;;;;;;;24.72;33.48;101138.69;5047507;28;20513;-76
2023/05/07 17:35:32;;;;;;;9.55;3.03;;;;;;;24.53;33.54;101132.78;5048433;28;20457;-79
2023/05/07 17:37:58;;;;;;;13.53;3.20;;;;;;;24.43;33.80;101139.69;5047758;28;20913;-78
2023/05/07 17:40:25;;;;;;;8.32;2.70;;;;;;;24.29;33.94;101138.44;5047230;28;20401;-77
2023/05/07 17:42:51;;;;;;;10.23;3.05;;;;;;;24.21;34.17;101142.38;5047877;28;20381;-77
2023/05/07 17:45:16;;;;;;;10.98;2.83;;;;;;;24.17;34.36;101151.28;5038285;28;20715;-77
2023/05/07 17:47:42;;;;;;;7.90;2.60;;;;;;;24.12;34.49;101151.19;5033119;28;20374;-77
2023/05/07 17:50:11;;;;;;;8.60;2.70;;;;;;;24.01;34.49;101144.81;5034395;28;20378;-77
2023/05/07 17:52:37;;;;;;;9.53;3.00;;;;;;;24.03;34.77;101157.03;5033574;28;20397;-76
2023/05/07 17:55:03;;;;;;;8.67;2.83;;;;;;;23.87;34.70;101144.34;5033868;28;20382;-77
2023/05/07 17:57:30;;;;;;;7.82;2.50;;;;;;;23.90;34.56;101153.88;5033659;28;20787;-77
2023/05/07 17:59:56;;;;;;;9.00;2.80;;;;;;;23.91;34.67;101144.66;5034169;28;20386;-78
2023/05/07 18:02:22;;;;;;;11.10;3.13;;;;;;;23.85;34.73;101151.91;5033941;28;20447;-77
2023/05/07 18:04:47;;;;;;;11.13;3.33;;;;;;;23.81;35.05;101150.75;5034134;28;20461;-77
2023/05/07 18:07:13;;;;;;;14.32;3.47;;;;;;;23.84;34.91;101155.66;5033528;28;20469;-77
2023/05/07 18:09:38;;;;;;;14.95;3.92;;;;;;;23.82;35.03;101161.34;5033339;28;20417;-78
2023/05/07 18:12:04;;;;;;;14.60;3.90;;;;;;;23.77;35.31;101154.97;5033559;28;20398;-77
2023/05/07 18:14:29;;;;;;;8.80;3.33;;;;;;;23.73;35.15;101161.97;5033907;28;20406;-77
2023/05/07 18:16:55;;;;;;;10.85;3.78;;;;;;;23.76;35.18;101170.41;5034373;28;20378;-77
2023/05/07 18:19:20;;;;;;;10.63;3.90;;;;;;;23.72;35.42;101171.16;5034151;28;20804;-78
2023/05/07 18:21:45;;;;;;;7.73;3.63;;;;;;;23.69;35.35;101172.47;5034231;28;20382;-79
2023/05/07 18:24:11;;;;;;;9.73;3.72;;;;;;;23.65;35.34;101169.44;5034427;28;20421;-78
2023/05/07 18:26:36;;;;;;;11.83;4.70;;;;;;;23.61;35.42;101165.59;5042611;28;20387;-77
2023/05/07 18:29:02;;;;;;;13.60;7.00;;;;;;;23.59;35.53;101172.31;5042936;28;20418;-77
2023/05/07 18:31:27;;;;;;;14.37;7.50;;;;;;;23.54;35.58;101173.03;5044915;28;20384;-77
2023/05/07 18:33:54;;;;;;;8.38;4.38;;;;;;;23.48;35.64;101172.16;5044407;28;20422;-77
2023/05/07 18:36:20;;;;;;;11.13;4.17;;;;;;;23.44;35.86;101181.81;5040646;28;20394;-77
2023/05/07 18:38:46;;;;;;;11.25;5.20;;;;;;;23.34;35.95;101176.22;5045318;28;20413;-77
2023/05/07 18:41:11;;;;;;;15.03;4.90;;;;;;;23.25;36.07;101173.09;5026387;28;20495;-78
2023/05/07 18:43:37;;;;;;;9.93;4.00;;;;;;;23.25;36.16;101188.50;5009989;28;20870;-78
2023/05/07 18:46:02;;;;;;;9.43;3.47;;;;;;;23.18;36.26;101182.44;5026936;28;20388;-77
2023/05/07 18:48:28;;;;;;;12.47;3.90;;;;;;;23.14;36.12;101194.78;5021135;28;20744;-77
2023/05/07 18:50:53;;;;;;;11.65;4.30;;;;;;;23.02;36.74;101197.50;5016954;28;20765;-76
2023/05/07 18:53:19;;;;;;;8.97;4.03;;;;;;;22.87;36.87;101204.25;5016735;28;20412;-77
2023/05/07 18:55:48;;;;;;;9.50;3.22;;;;;;;22.83;36.96;101205.81;5005668;28;20849;-77
2023/05/07 18:58:15;;;;;;;9.15;3.47;;;;;;;22.84;36.82;101207.44;5027399;28;20380;-76
2023/05/07 19:00:40;;;;;;;15.02;5.18;;;;;;;22.88;36.90;101224.00;5013798;28;20384;-77
2023/05/07 19:03:06;;;;;;;12.93;4.83;;;;;;;22.83;37.25;101226.59;5014107;28;20467;-78
2023/05/07 19:05:31;;;;;;;8.77;4.00;;;;;;;22.77;37.47;101222.16;5011279;28;20884;-77
2023/05/07 19:07:57;;;;;;;13.70;4.67;;;;;;;22.82;37.33;101230.38;5022596;28;20872;-77
2023/05/07 19:10:22;;;;;;;11.65;4.30;;;;;;;22.75;37.31;101224.28;5006337;28;20394;-78
2023/05/07 19:12:50;;;;;;;10.57;4.40;;;;;;;22.74;37.56;101228.03;5005191;28;20479;-76
2023/05/07 19:15:15;;;;;;;11.60;4.57;;;;;;;22.73;37.45;101229.91;5008366;28;20973;-79
2023/05/07 19:17:40;;;;;;;17.37;4.93;;;;;;;22.71;37.48;101240.16;5006943;28;20416;-78
2023/05/07 19:20:07;;;;;;;9.55;3.80;;;;;;;22.63;37.88;101232.41;5014785;28;20419;-77
2023/05/07 19:22:32;;;;;;;16.73;4.93;;;;;;;22.57;37.99;101236.06;5010579;28;20400;-77
2023/05/07 19:24:58;;;;;;;11.20;4.40;;;;;;;22.49;38.64;101239.94;5031600;28;20391;-77
2023/05/07 19:27:23;;;;;;;17.13;7.00;;;;;;;22.46;38.67;101245.81;5011908;28;20459;-78
2023/05/07 19:29:49;;;;;;;20.08;7.22;;;;;;;22.42;39.02;101242.78;5019329;28;20764;-77
2023/05/07 19:32:15;;;;;;;20.27;6.90;;;;;;;22.28;39.42;101238.66;5011569;28;20504;-77
2023/05/07 19:34:40;;;;;;;17.02;7.18;;;;;;;22.27;39.56;101248.66;5007122;28;20902;-76
2023/05/07 19:37:06;;;;;;;24.92;7.68;;;;;;;22.12;40.06;101253.66;5012231;28;20883;-77
2023/05/07 19:39:31;;;;;;;21.73;6.77;;;;;;;22.05;40.28;101245.66;5011876;28;20380;-77
2023/05/07 19:41:57;;;;;;;17.87;6.87;;;;;;;22.06;40.36;101241.91;5014175;28;20446;-77
2023/05/07 19:44:23;;;;;;;19.03;6.90;;;;;;;22.06;40.42;101244.63;5011812;28;20376;-77
2023/05/07 19:46:49;;;;;;;21.73;6.65;;;;;;;21.98;40.56;101236.03;5020408;28;20412;-77
2023/05/07 19:49:15;;;;;;;15.00;6.20;;;;;;;21.95;40.56;101243.56;5011259;28;20388;-76
2023/05/07 19:51:40;;;;;;;19.53;6.10;;;;;;;21.95;40.76;101245.44;5016819;28;20471;-78
2023/05/07 19:54:06;;;;;;;12.80;5.30;;;;;;;21.89;40.65;101247.16;5017266;28;20414;-76
2023/05/07 19:56:31;;;;;;;16.23;5.47;;;;;;;21.77;40.87;101244.47;5010772;28;20407;-76
2023/05/07 19:58:57;;;;;;;16.73;5.77;;;;;;;21.81;41.19;101250.22;5011764;28;20419;-76
2023/05/07 20:01:22;;;;;;;19.50;6.10;;;;;;;21.77;40.82;101239.06;5010409;28;20466;-76
2023/05/07 20:03:48;;;;;;;15.60;6.05;;;;;;;21.70;41.15;101249.13;5025091;28;20396;-77
2023/05/07 20:06:13;;;;;;;16.10;5.40;;;;;;;21.70;41.30;101253.72;5011268;28;20396;-77
2023/05/07 20:08:38;;;;;;;13.47;5.20;;;;;;;21.72;40.96;101252.44;5022785;28;20402;-77
2023/05/07 20:11:04;;;;;;;15.25;5.00;;;;;;;21.67;41.11;101246.91;5012240;28;20395;-78
2023/05/07 20:13:30;;;;;;;20.00;5.87;;;;;;;21.62;41.00;101246.75;5033711;28;20426;-77
2023/05/07 20:15:59;;;;;;;20.60;4.70;;;;;;;21.63;40.65;101243.03;5011004;28;20396;-78
2023/05/07 20:18:26;;;;;;;14.05;5.53;;;;;;;21.69;40.85;101260.97;5003592;28;20461;-78
2023/05/07 20:20:51;;;;;;;12.20;5.30;;;;;;;21.65;40.83;101250.88;5016280;28;20406;-79
2023/05/07 20:23:17;;;;;;;20.30;5.27;;;;;;;21.65;40.68;101248.19;5007147;28;20408;-77
2023/05/07 20:25:42;;;;;;;10.97;4.70;;;;;;;21.57;40.88;101258.25;5010573;28;20388;-77
2023/05/07 20:28:08;;;;;;;15.85;5.00;;;;;;;21.44;41.16;101241.41;5009114;28;20395;-77
2023/05/07 20:30:34;;;;;;;15.73;5.60;;;;;;;21.46;41.43;101252.81;5012425;28;20402;-77
2023/05/07 20:32:59;;;;;;;13.35;4.90;;;;;;;21.37;41.77;101246.88;5016757;28;20473;-77
2023/05/07 20:35:25;;;;;;;12.33;4.53;;;;;;;21.35;41.35;101254.38;5009918;28;20400;-77
2023/05/07 20:37:50;;;;;;;13.37;4.73;;;;;;;21.29;41.45;101248.03;5017202;28;20380;-78
2023/05/07 20:40:17;;;;;;;17.10;5.93;;;;;;;21.23;41.82;101261.59;5011211;28;20384;-78
2023/05/07 20:42:43;;;;;;;15.43;5.07;;;;;;;21.19;41.96;101266.63;5010676;28;20388;-78
2023/05/07 20:45:09;;;;;;;21.60;5.73;;;;;;;21.08;42.30;101260.13;5010727;28;20405;-77
2023/05/07 20:47:35;;;;;;;12.20;4.53;;;;;;;20.95;42.71;101263.81;5016900;28;20387;-78
2023/05/07 20:50:01;;;;;;;11.70;4.30;;;;;;;20.65;43.14;101258.34;5009964;28;20372;-77
2023/05/07 20:52:26;;;;;;;13.47;4.47;;;;;;;20.52;43.16;101261.97;5010259;28;20414;-77
2023/05/07 20:54:52;;;;;;;13.07;4.75;;;;;;;20.43;43.33;101260.59;5010099;28;20416;-77
2023/05/07 20:57:18;;;;;;;13.40;4.57;;;;;;;20.23;43.83;101260.78;5016903;28;20393;-77
2023/05/07 20:59:44;;;;;;;15.70;5.25;;;;;;;20.03;44.11;101253.72;5015573;28;20397;-77
2023/05/07 21:02:10;;;;;;;18.93;5.90;;;;;;;19.89;44.38;101264.81;5017632;28;20752;-76
2023/05/07 21:04:35;;;;;;;18.05;6.82;;;;;;;19.70;44.73;101262.00;5010086;28;20380;-77
2023/05/07 21:07:01;;;;;;;24.47;7.70;;;;;;;19.72;44.96;101269.88;5008892;28;20392;-77
2023/05/07 21:09:26;;;;;;;20.80;7.75;;;;;;;19.71;44.75;101257.44;5009694;28;20387;-77
2023/05/07 21:11:52;;;;;;;23.40;14.77;;;;;;;19.66;44.90;101260.78;5005356;28;20399;-77
2023/05/07 21:14:18;;;;;;;24.23;16.38;;;;;;;19.48;45.49;101266.88;5010690;28;20420;-78
2023/05/07 21:16:44;;;;;;;27.23;18.08;;;;;;;19.36;45.64;101265.94;4993727;28;20750;-78
2023/05/07 21:19:10;;;;;;;32.28;25.45;;;;;;;19.15;46.09;101275.94;5007350;28;20388;-77
2023/05/07 21:21:36;;;;;;;44.65;32.90;;;;;;;19.06;46.53;101274.53;5014052;28;20896;-77
2023/05/07 21:24:01;;;;;;;29.17;23.97;;;;;;;19.04;46.59;101274.75;5013959;28;20894;-78
2023/05/07 21:26:27;;;;;;;25.25;16.70;;;;;;;18.96;46.87;101269.63;5003734;28;20389;-77
2023/05/07 21:28:53;;;;;;;31.10;16.50;;;;;;;18.94;46.80;101278.91;4997275;28;20396;-75
2023/05/07 21:31:18;;;;;;;30.10;21.10;;;;;;;18.83;47.08;101275.03;4993298;28;20385;-77
2023/05/07 21:33:44;;;;;;;38.20;23.50;;;;;;;18.87;47.07;101284.28;5016602;28;20462;-77
2023/05/07 21:36:10;;;;;;;36.13;27.60;;;;;;;18.72;47.18;101281.84;4999554;28;20422;-76
2023/05/07 21:38:37;;;;;;;42.65;32.13;;;;;;;18.65;47.64;101286.38;5007958;28;20407;-76
2023/05/07 21:41:03;;;;;;;42.88;29.63;;;;;;;18.34;48.38;101282.50;5010851;28;20427;-77
2023/05/07 21:43:28;;;;;;;19.60;6.68;;;;;;;18.17;48.84;101281.25;5011810;28;20477;-77
2023/05/07 21:45:54;;;;;;;23.57;6.90;;;;;;;18.22;48.83;101284.16;5026340;28;20396;-77
2023/05/07 21:48:22;;;;;;;19.23;6.78;;;;;;;18.21;48.73;101282.53;5025912;28;20407;-76
2023/05/07 21:50:57;;;;;;;19.85;6.32;;;;;;;18.19;48.64;101280.03;5009452;28;20404;-76
2023/05/07 21:53:23;;;;;;;18.40;5.90;;;;;;;18.09;49.03;101277.75;5010371;28;20409;-76
2023/05/07 21:55:48;;;;;;;19.13;6.40;;;;;;;18.10;48.86;101270.56;5010812;28;20796;-76
2023/05/07 21:58:13;;;;;;;22.48;6.40;;;;;;;18.10;49.03;101281.28;5026815;28;20489;-77
2023/05/07 22:00:39;;;;;;;20.37;6.17;;;;;;;18.11;49.18;101280.25;5013477;28;20402;-77
2023/05/07 22:03:04;;;;;;;20.70;5.93;;;;;;;17.98;49.29;101270.31;5015830;28;20403;-76
2023/05/07 22:05:30;;;;;;;19.27;7.47;;;;;;;17.90;49.51;101270.53;5027715;28;20398;-76
2023/05/07 22:07:55;;;;;;;23.53;13.50;;;;;;;17.85;49.58;101276.50;5019650;28;20471;-77
2023/05/07 22:10:21;;;;;;;26.23;14.57;;;;;;;17.66;50.46;101285.31;5026068;28;20403;-77
2023/05/07 22:12:46;;;;;;;24.23;10.40;;;;;;;17.30;51.23;101289.13;5020422;28;20380;-77
2023/05/07 22:15:12;;;;;;;40.70;29.35;;;;;;;17.30;51.15;101278.41;5009248;28;20441;-77
2023/05/07 22:17:37;;;;;;;63.87;38.23;;;;;;;17.36;50.77;101283.78;5009789;28;20987;-77
2023/05/07 22:20:03;;;;;;;36.28;15.52;;;;;;;17.33;50.73;101288.72;5003653;28;20380;-77
2023/05/07 22:22:28;;;;;;;71.67;40.07;;;;;;;17.15;51.16;101284.72;5009290;28;20463;-77
2023/05/07 22:24:54;;;;;;;18.85;5.50;;;;;;;17.11;51.21;101282.66;5009283;28;20388;-77
2023/05/07 22:27:19;;;;;;;18.00;10.83;;;;;;;17.10;51.14;101279.13;5010147;28;20404;-77
2023/05/07 22:29:45;;;;;;;15.43;4.60;;;;;;;17.00;51.49;101282.19;5009706;28;20380;-77
2023/05/07 22:32:10;;;;;;;16.40;4.40;;;;;;;16.94;51.50;101282.16;5009885;28;20392;-77
2023/05/07 22:34:36;;;;;;;19.47;8.83;;;;;;;16.93;51.55;101277.84;5009275;28;20450;-77
2023/05/07 22:37:01;;;;;;;18.27;4.60;;;;;;;16.79;51.88;101280.41;5009876;28;20756;-77
2023/05/07 22:39:26;;;;;;;19.20;4.87;;;;;;;16.43;53.02;101281.41;5009585;28;20419;-77
2023/05/07 22:41:52;;;;;;;27.47;15.20;;;;;;;16.23;53.47;101278.56;5010655;28;20737;-76
2023/05/07 22:44:17;;;;;;;44.70;33.93;;;;;;;16.36;53.08;101283.19;5009309;28;20388;-77
2023/05/07 22:46:43;;;;;;;68.80;43.83;;;;;;;16.57;52.30;101285.00;5009070;28;20407;-76
2023/05/07 22:49:08;;;;;;;209.30;74.80;;;;;;;16.62;51.93;101284.44;5009805;28;20482;-77
2023/05/07 22:51:34;;;;;;;103.37;53.23;;;;;;;16.55;52.10;101276.34;5013790;28;20419;-76
2023/05/07 22:53:59;;;;;;;53.20;38.60;;;;;;;16.46;52.14;101269.50;5009478;28;20443;-76
2023/05/07 22:56:25;;;;;;;223.50;78.13;;;;;;;16.25;52.85;101276.53;5009540;28;20423;-77
2023/05/07 22:58:50;;;;;;;70.45;43.03;;;;;;;16.20;52.97;101275.47;5010264;28;20388;-77
2023/05/07 23:01:17;;;;;;;167.97;66.23;;;;;;;16.16;53.22;101267.00;5011223;28;21135;-77
2023/05/07 23:03:42;;;;;;;91.93;48.17;;;;;;;16.07;53.48;101270.81;5009896;28;20876;-76
2023/05/07 23:06:08;;;;;;;79.80;45.73;;;;;;;16.00;53.51;101270.75;5011436;28;20411;-76
2023/05/07 23:08:34;;;;;;;119.25;56.75;;;;;;;16.17;53.02;101273.16;5025712;28;20444;-77
2023/05/07 23:11:00;;;;;;;307.95;91.53;;;;;;;16.05;53.38;101278.22;5007537;28;20465;-77
2023/05/07 23:13:25;;;;;;;355.10;101.20;;;;;;;15.96;53.69;101269.50;5010411;28;20909;-77
2023/05/07 23:15:51;;;;;;;317.77;95.10;;;;;;;15.94;53.87;101270.72;5015245;28;20404;-77
2023/05/07 23:18:16;;;;;;;302.83;92.60;;;;;;;16.11;53.13;101269.41;5009137;28;20396;-77
2023/05/07 23:20:42;;;;;;;246.10;82.07;;;;;;;16.15;52.85;101260.00;5011472;28;20706;-77
2023/05/07 23:23:09;;;;;;;240.63;80.88;;;;;;;16.01;53.13;101247.53;5010374;28;20749;-77
2023/05/07 23:25:34;;;;;;;191.90;71.90;;;;;;;16.03;53.17;101248.19;5010807;28;20384;-76
2023/05/07 23:28:00;;;;;;;119.17;56.13;;;;;;;15.85;53.83;101253.97;5010378;28;20399;-76
2023/05/07 23:30:26;;;;;;;114.37;54.50;;;;;;;15.74;53.90;101247.28;5010682;28;20483;-77
2023/05/07 23:32:51;;;;;;;154.05;63.50;;;;;;;15.82;53.74;101249.00;5021906;28;20477;-76
2023/05/07 23:35:17;;;;;;;194.20;71.43;;;;;;;15.95;53.18;101251.78;5009435;28;20920;-77
2023/05/07 23:37:42;;;;;;;173.05;67.03;;;;;;;15.76;53.92;101249.78;5010387;28;20445;-77
2023/05/07 23:40:08;;;;;;;197.50;72.53;;;;;;;15.81;53.99;101252.69;5010055;28;20400;-77
2023/05/07 23:42:34;;;;;;;224.07;76.75;;;;;;;15.72;53.90;101243.97;5006713;28;20473;-77
2023/05/07 23:45:00;;;;;;;285.15;87.47;;;;;;;15.74;53.84;101252.63;5008979;28;20454;-77
2023/05/07 23:47:25;;;;;;;201.52;72.85;;;;;;;15.79;53.51;101252.91;5017867;28;20403;-77
2023/05/07 23:49:51;;;;;;;265.37;84.63;;;;;;;15.71;54.08;101244.16;5027940;28;20374;-77
2023/05/07 23:52:16;;;;;;;184.67;69.57;;;;;;;15.72;53.87;101251.97;5010044;28;20402;-77
2023/05/07 23:54:41;;;;;;;145.50;62.50;;;;;;;15.66;53.86;101247.38;5009670;28;20427;-76
2023/05/07 23:57:07;;;;;;;276.00;87.22;;;;;;;15.62;53.88;101243.44;5009390;28;20486;-76
2023/05/07 23:59:32;;;;;;;13.53;4.37;;;;;;;15.57;54.25;101249.34;5009738;28;20398;-76
